createdAt,value
2023-04-24T00:01:02.701Z,9.21
2023-04-24T00:03:30.623Z,9.24
2023-04-24T00:05:59.413Z,9.27
2023-04-24T00:08:26.910Z,9.30
2023-04-24T00:10:53.840Z,9.32
2023-04-24T00:13:20.630Z,9.35
2023-04-24T00:15:48.044Z,9.37
2023-04-24T00:18:14.915Z,9.39
2023-04-24T00:20:41.804Z,9.41
2023-04-24T00:23:08.507Z,9.41
2023-04-24T00:25:35.261Z,9.39
2023-04-24T00:28:02.652Z,9.38
2023-04-24T00:30:29.601Z,9.37
2023-04-24T00:32:57.372Z,9.36
2023-04-24T00:35:24.315Z,9.33
2023-04-24T00:37:51.200Z,9.31
2023-04-24T00:40:17.954Z,9.29
2023-04-24T00:42:45.448Z,9.30
2023-04-24T00:45:12.648Z,9.30
2023-04-24T00:47:39.358Z,9.30
2023-04-24T00:50:07.303Z,9.31
2023-04-24T00:52:35.144Z,9.31
2023-04-24T00:55:01.852Z,9.32
2023-04-24T00:57:29.023Z,9.34
2023-04-24T00:59:55.692Z,9.37
2023-04-24T01:02:23.600Z,9.37
2023-04-24T01:04:53.508Z,9.36
2023-04-24T01:07:21.234Z,9.34
2023-04-24T01:09:49.318Z,9.31
2023-04-24T01:12:16.029Z,9.29
2023-04-24T01:14:44.651Z,9.28
2023-04-24T01:17:11.368Z,9.27
2023-04-24T01:19:38.863Z,9.27
2023-04-24T01:22:13.285Z,9.28
2023-04-24T01:24:40.285Z,9.28
2023-04-24T01:27:07.672Z,9.29
2023-04-24T01:29:34.902Z,9.30
2023-04-24T01:32:03.606Z,9.30
2023-04-24T01:34:30.977Z,9.31
2023-04-24T01:36:57.679Z,9.33
2023-04-24T01:39:26.072Z,9.35
2023-04-24T01:41:55.132Z,9.38
2023-04-24T01:44:21.927Z,9.41
2023-04-24T01:46:48.702Z,9.44
2023-04-24T01:49:15.984Z,9.48
2023-04-24T01:51:42.636Z,9.50
2023-04-24T01:54:09.311Z,9.51
2023-04-24T01:56:36.630Z,9.54
2023-04-24T01:59:04.337Z,9.57
2023-04-24T02:01:36.458Z,9.58
2023-04-24T02:04:03.955Z,9.60
2023-04-24T02:06:31.714Z,9.61
2023-04-24T02:09:01.245Z,9.62
2023-04-24T02:11:28.602Z,9.63
2023-04-24T02:13:55.539Z,9.64
2023-04-24T02:16:22.269Z,9.65
2023-04-24T02:18:49.149Z,9.67
2023-04-24T02:21:16.063Z,9.69
2023-04-24T02:23:42.745Z,9.71
2023-04-24T02:26:10.713Z,9.73
2023-04-24T02:28:37.439Z,9.74
2023-04-24T02:31:04.096Z,9.75
2023-04-24T02:33:31.382Z,9.76
2023-04-24T02:35:58.227Z,9.76
2023-04-24T02:38:25.394Z,9.75
2023-04-24T02:40:52.587Z,9.75
2023-04-24T02:43:19.810Z,9.73
2023-04-24T02:45:46.652Z,9.71
2023-04-24T02:48:13.414Z,9.68
2023-04-24T02:50:40.091Z,9.65
2023-04-24T02:53:06.782Z,9.62
2023-04-24T02:55:33.510Z,9.59
2023-04-24T02:58:00.469Z,9.55
2023-04-24T03:00:27.258Z,9.52
2023-04-24T03:02:54.145Z,9.49
2023-04-24T03:05:21.201Z,9.47
2023-04-24T03:07:47.942Z,9.45
2023-04-24T03:10:14.765Z,9.42
2023-04-24T03:12:42.648Z,9.40
2023-04-24T03:15:09.716Z,9.40
2023-04-24T03:17:38.384Z,9.39
2023-04-24T03:20:06.736Z,9.38
2023-04-24T03:22:35.011Z,9.37
2023-04-24T03:25:02.442Z,9.35
2023-04-24T03:27:29.531Z,9.34
2023-04-24T03:30:01.201Z,9.33
2023-04-24T03:32:34.879Z,9.34
2023-04-24T03:35:01.845Z,9.37
2023-04-24T03:37:28.977Z,9.40
2023-04-24T03:40:09.752Z,9.45
2023-04-24T03:42:39.129Z,9.50
2023-04-24T03:45:07.376Z,9.58
2023-04-24T03:47:35.322Z,9.66
2023-04-24T03:50:02.361Z,9.74
2023-04-24T03:52:30.086Z,9.83
2023-04-24T03:54:56.779Z,9.92
2023-04-24T03:57:24.494Z,10.02
2023-04-24T04:00:06.760Z,10.14
2023-04-24T04:02:41.814Z,10.27
2023-04-24T04:05:09.809Z,10.40
2023-04-24T04:07:37.039Z,10.53
2023-04-24T04:10:04.567Z,10.65
2023-04-24T04:12:31.475Z,10.79
2023-04-24T04:14:58.607Z,10.94
2023-04-24T04:17:25.561Z,11.09
2023-04-24T04:19:52.682Z,11.24
2023-04-24T04:22:19.275Z,11.40
2023-04-24T04:24:51.389Z,11.55
2023-04-24T04:27:21.631Z,11.70
2023-04-24T04:29:53.922Z,11.90
2023-04-24T04:32:22.042Z,12.11
2023-04-24T04:34:49.841Z,12.34
2023-04-24T04:37:17.676Z,12.55
2023-04-24T04:40:07.141Z,12.73
2023-04-24T04:42:40.671Z,12.92
2023-04-24T04:45:12.013Z,13.14
2023-04-24T04:47:49.163Z,13.47
2023-04-24T04:50:17.086Z,13.76
2023-04-24T04:52:43.753Z,14.05
2023-04-24T04:55:24.632Z,14.29
2023-04-24T04:58:07.998Z,14.46
2023-04-24T05:00:37.949Z,14.71
2023-04-24T05:03:20.740Z,15.21
2023-04-24T05:05:52.915Z,15.79
2023-04-24T05:08:27.134Z,16.32
2023-04-24T05:10:55.750Z,16.69
2023-04-24T05:13:35.642Z,16.91
2023-04-24T05:16:10.415Z,17.02
2023-04-24T05:18:37.297Z,16.99
2023-04-24T05:21:04.936Z,16.88
2023-04-24T05:23:32.544Z,16.74
2023-04-24T05:25:59.447Z,16.60
2023-04-24T05:28:29.118Z,16.43
2023-04-24T05:31:04.032Z,16.26
2023-04-24T05:33:31.883Z,16.19
2023-04-24T05:35:58.619Z,16.15
2023-04-24T05:38:25.701Z,16.13
2023-04-24T05:40:53.307Z,16.34
2023-04-24T05:43:20.328Z,16.84
2023-04-24T05:45:48.298Z,17.54
2023-04-24T05:48:15.341Z,18.40
2023-04-24T05:50:42.307Z,19.39
2023-04-24T05:53:11.079Z,20.36
2023-04-24T05:55:38.414Z,21.17
2023-04-24T05:58:05.202Z,21.85
2023-04-24T06:00:35.904Z,22.48
2023-04-24T06:03:05.328Z,22.99
2023-04-24T06:05:32.599Z,23.43
2023-04-24T06:07:59.736Z,23.98
2023-04-24T06:10:30.543Z,24.45
2023-04-24T06:13:00.783Z,24.81
2023-04-24T06:15:30.724Z,25.01
2023-04-24T06:18:01.169Z,25.32
2023-04-24T06:20:28.109Z,25.61
2023-04-24T06:22:54.870Z,25.79
2023-04-24T06:25:21.547Z,26.03
2023-04-24T06:27:48.285Z,26.32
2023-04-24T06:30:15.139Z,26.54
2023-04-24T06:32:42.613Z,26.96
2023-04-24T06:35:10.392Z,27.22
2023-04-24T06:37:37.285Z,27.43
2023-04-24T06:40:05.615Z,27.85
2023-04-24T06:42:35.462Z,28.30
2023-04-24T06:45:03.717Z,28.57
2023-04-24T06:47:30.552Z,28.72
2023-04-24T06:49:57.697Z,28.91
2023-04-24T06:52:24.546Z,29.13
2023-04-24T06:54:51.228Z,29.27
2023-04-24T06:57:18.676Z,29.31
2023-04-24T06:59:45.557Z,29.42
2023-04-24T07:02:12.628Z,29.63
2023-04-24T07:04:40.468Z,29.75
2023-04-24T07:07:13.396Z,29.97
2023-04-24T07:09:42.966Z,30.27
2023-04-24T07:12:14.064Z,30.60
2023-04-24T07:14:41.210Z,30.82
2023-04-24T07:17:08.708Z,30.72
2023-04-24T07:19:38.371Z,30.53
2023-04-24T07:22:05.038Z,30.40
2023-04-24T07:24:34.654Z,30.40
2023-04-24T07:27:03.982Z,30.71
2023-04-24T07:29:30.714Z,31.17
2023-04-24T07:31:57.628Z,31.65
2023-04-24T07:34:24.582Z,31.85
2023-04-24T07:36:51.466Z,31.77
2023-04-24T07:39:18.777Z,31.75
2023-04-24T07:41:45.417Z,32.01
2023-04-24T07:44:12.231Z,32.29
2023-04-24T07:46:39.004Z,32.30
2023-04-24T07:49:13.262Z,32.39
2023-04-24T07:51:41.768Z,32.60
2023-04-24T07:54:08.610Z,32.73
2023-04-24T07:56:39.165Z,32.90
2023-04-24T07:59:06.670Z,33.04
2023-04-24T08:01:34.070Z,32.91
2023-04-24T08:04:01.236Z,32.84
2023-04-24T08:06:30.878Z,32.73
2023-04-24T08:08:58.309Z,32.53
2023-04-24T08:11:25.503Z,32.51
2023-04-24T08:13:52.393Z,32.37
2023-04-24T08:16:19.251Z,32.30
2023-04-24T08:18:45.977Z,32.38
2023-04-24T08:21:17.514Z,32.50
2023-04-24T08:23:44.533Z,32.56
2023-04-24T08:26:11.806Z,32.69
2023-04-24T08:28:38.872Z,32.57
2023-04-24T08:31:05.709Z,32.48
2023-04-24T08:33:34.816Z,32.46
2023-04-24T08:36:05.852Z,32.38
2023-04-24T08:38:33.422Z,32.57
2023-04-24T08:41:01.393Z,32.78
2023-04-24T08:43:28.686Z,32.88
2023-04-24T08:45:57.283Z,33.03
2023-04-24T08:48:30.884Z,33.17
2023-04-24T08:50:59.235Z,33.34
2023-04-24T08:53:26.825Z,33.33
2023-04-24T08:55:54.918Z,33.22
2023-04-24T08:58:22.650Z,32.99
2023-04-24T09:00:49.569Z,32.74
2023-04-24T09:03:18.139Z,32.56
2023-04-24T09:05:46.410Z,32.49
2023-04-24T09:08:19.782Z,32.53
2023-04-24T09:10:49.072Z,32.64
2023-04-24T09:13:18.767Z,32.59
2023-04-24T09:15:45.684Z,32.43
2023-04-24T09:18:12.466Z,32.38
2023-04-24T09:21:03.866Z,32.31
2023-04-24T09:23:31.800Z,31.84
2023-04-24T09:26:00.517Z,31.57
2023-04-24T09:28:33.619Z,31.57
2023-04-24T09:31:10.835Z,31.76
2023-04-24T09:33:37.856Z,31.37
2023-04-24T09:36:05.019Z,30.71
2023-04-24T09:38:33.324Z,30.10
2023-04-24T09:41:04.316Z,29.20
2023-04-24T09:43:31.790Z,28.11
2023-04-24T09:45:59.602Z,27.15
2023-04-24T09:48:38.700Z,26.56
2023-04-24T09:51:07.611Z,26.05
2023-04-24T09:53:34.523Z,25.71
2023-04-24T09:56:09.053Z,25.51
2023-04-24T09:58:37.004Z,25.49
2023-04-24T10:01:04.267Z,25.36
2023-04-24T10:03:32.230Z,25.06
2023-04-24T10:06:00.231Z,24.69
2023-04-24T10:08:27.273Z,24.43
2023-04-24T10:10:54.118Z,24.18
2023-04-24T10:13:21.183Z,23.86
2023-04-24T10:15:47.911Z,23.47
2023-04-24T10:18:15.188Z,23.07
2023-04-24T10:20:42.435Z,22.64
2023-04-24T10:23:10.982Z,22.29
2023-04-24T10:25:38.081Z,21.99
2023-04-24T10:28:05.401Z,21.69
2023-04-24T10:30:38.161Z,21.41
2023-04-24T10:33:08.062Z,21.21
2023-04-24T10:35:38.171Z,21.06
2023-04-24T10:38:15.051Z,20.98
2023-04-24T10:40:42.530Z,21.04
2023-04-24T10:43:11.536Z,21.16
2023-04-24T10:45:39.115Z,21.32
2023-04-24T10:48:11.355Z,21.70
2023-04-24T10:50:45.184Z,22.23
2023-04-24T10:53:27.648Z,22.84
2023-04-24T10:55:58.543Z,23.32
2023-04-24T10:58:37.745Z,23.63
2023-04-24T11:01:04.682Z,23.81
2023-04-24T11:03:33.352Z,23.80
2023-04-24T11:06:02.845Z,23.80
2023-04-24T11:08:31.623Z,23.76
2023-04-24T11:11:04.334Z,23.77
2023-04-24T11:14:08.349Z,23.84
2023-04-24T11:16:39.518Z,23.98
2023-04-24T11:19:10.092Z,24.09
2023-04-24T11:21:50.402Z,24.20
2023-04-24T11:24:29.561Z,24.31
2023-04-24T11:27:04.445Z,24.39
2023-04-24T11:29:48.719Z,24.30
2023-04-24T11:32:30.663Z,24.05
2023-04-24T11:35:02.189Z,23.68
2023-04-24T11:37:39.964Z,23.28
2023-04-24T11:40:11.450Z,22.88
2023-04-24T11:42:45.107Z,22.38
2023-04-24T11:45:16.298Z,21.91
2023-04-24T11:47:43.741Z,21.61
2023-04-24T11:50:15.320Z,21.27
2023-04-24T11:52:43.851Z,20.91
2023-04-24T11:55:16.663Z,20.52
2023-04-24T11:57:45.055Z,20.13
2023-04-24T12:00:19.968Z,19.86
2023-04-24T12:02:47.253Z,19.62
2023-04-24T12:05:40.512Z,19.35
2023-04-24T12:08:07.372Z,19.03
2023-04-24T12:10:35.268Z,18.70
2023-04-24T12:13:01.954Z,18.40
2023-04-24T12:15:29.275Z,18.14
2023-04-24T12:17:56.121Z,17.93
2023-04-24T12:20:28.201Z,17.82
2023-04-24T12:22:58.398Z,17.77
2023-04-24T12:25:26.484Z,17.76
2023-04-24T12:28:12.784Z,17.74
2023-04-24T12:30:48.804Z,17.71
2023-04-24T12:33:22.207Z,17.67
2023-04-24T12:35:51.876Z,17.61
2023-04-24T12:38:22.669Z,17.56
2023-04-24T12:41:05.164Z,17.54
2023-04-24T12:43:32.474Z,17.53
2023-04-24T12:45:59.609Z,17.42
2023-04-24T12:48:27.444Z,17.27
2023-04-24T12:50:54.157Z,17.18
2023-04-24T12:53:20.812Z,17.18
2023-04-24T12:55:52.839Z,17.21
2023-04-24T12:58:20.883Z,17.21
2023-04-24T13:00:47.905Z,17.22
2023-04-24T13:03:15.270Z,17.23
2023-04-24T13:05:43.182Z,17.20
2023-04-24T13:08:09.886Z,17.23
2023-04-24T13:10:37.833Z,17.35
2023-04-24T13:13:04.921Z,17.49
2023-04-24T13:15:31.986Z,17.59
2023-04-24T13:17:58.630Z,17.64
2023-04-24T13:20:25.853Z,17.66
2023-04-24T13:22:52.613Z,17.71
2023-04-24T13:25:20.863Z,17.75
2023-04-24T13:27:47.571Z,17.79
2023-04-24T13:30:14.586Z,17.84
2023-04-24T13:32:41.427Z,17.86
2023-04-24T13:35:08.893Z,17.87
2023-04-24T13:37:35.626Z,17.85
2023-04-24T13:40:06.409Z,17.81
2023-04-24T13:42:33.683Z,17.77
2023-04-24T13:45:01.001Z,17.78
2023-04-24T13:47:30.024Z,17.79
2023-04-24T13:49:56.648Z,17.82
2023-04-24T13:52:23.304Z,17.86
2023-04-24T13:54:50.027Z,17.93
2023-04-24T13:57:17.228Z,18.01
2023-04-24T13:59:43.929Z,17.99
2023-04-24T14:02:10.690Z,17.87
2023-04-24T14:04:38.078Z,17.77
2023-04-24T14:07:05.272Z,17.72
2023-04-24T14:09:32.147Z,17.62
2023-04-24T14:11:58.955Z,17.51
2023-04-24T14:14:25.734Z,17.42
2023-04-24T14:16:52.329Z,17.31
2023-04-24T14:19:18.999Z,17.21
2023-04-24T14:21:45.601Z,17.11
2023-04-24T14:24:12.282Z,17.06
2023-04-24T14:26:39.147Z,17.08
2023-04-24T14:29:14.115Z,17.14
2023-04-24T14:31:41.648Z,17.19
2023-04-24T14:34:08.636Z,17.23
2023-04-24T14:36:35.691Z,17.24
2023-04-24T14:39:06.614Z,17.23
2023-04-24T14:41:36.182Z,17.25
2023-04-24T14:44:03.536Z,17.29
2023-04-24T14:46:30.877Z,17.32
2023-04-24T14:48:58.268Z,17.34
2023-04-24T14:51:25.907Z,17.39
2023-04-24T14:53:52.863Z,17.44
2023-04-24T14:56:19.593Z,17.47
2023-04-24T14:58:46.245Z,17.49
2023-04-24T15:01:12.896Z,17.50
2023-04-24T15:03:39.700Z,17.51
2023-04-24T15:06:07.012Z,17.51
2023-04-24T15:08:33.638Z,17.47
2023-04-24T15:11:00.426Z,17.38
2023-04-24T15:13:27.099Z,17.26
2023-04-24T15:15:54.207Z,17.17
2023-04-24T15:18:21.039Z,17.07
2023-04-24T15:20:47.704Z,16.99
2023-04-24T15:23:14.324Z,16.94
2023-04-24T15:25:40.994Z,16.90
2023-04-24T15:28:07.664Z,16.85
2023-04-24T15:30:35.052Z,16.80
2023-04-24T15:33:02.269Z,16.74
2023-04-24T15:35:29.182Z,16.68
2023-04-24T15:37:55.774Z,16.61
2023-04-24T15:40:22.444Z,16.55
2023-04-24T15:42:49.301Z,16.50
2023-04-24T15:45:16.030Z,16.45
2023-04-24T15:47:44.727Z,16.40
2023-04-24T15:50:14.134Z,16.34
2023-04-24T15:52:42.009Z,16.28
2023-04-24T15:55:09.066Z,16.23
2023-04-24T15:57:35.734Z,16.18
2023-04-24T16:00:06.460Z,16.11
2023-04-24T16:02:38.891Z,16.04
2023-04-24T16:05:06.864Z,15.98
2023-04-24T16:07:34.734Z,15.90
2023-04-24T16:10:01.328Z,15.83
2023-04-24T16:12:28.888Z,15.77
2023-04-24T16:14:55.591Z,15.70
2023-04-24T16:17:22.625Z,15.62
2023-04-24T16:19:49.346Z,15.54
2023-04-24T16:22:16.104Z,15.48
2023-04-24T16:24:43.133Z,15.41
2023-04-24T16:27:10.381Z,15.32
2023-04-24T16:29:37.377Z,15.24
2023-04-24T16:32:04.055Z,15.16
2023-04-24T16:34:30.944Z,15.07
2023-04-24T16:36:57.663Z,15.00
2023-04-24T16:39:25.307Z,14.91
2023-04-24T16:41:54.087Z,14.83
2023-04-24T16:44:20.787Z,14.74
2023-04-24T16:46:47.465Z,14.66
2023-04-24T16:49:14.154Z,14.57
2023-04-24T16:51:40.786Z,14.47
2023-04-24T16:54:07.357Z,14.38
2023-04-24T16:56:34.780Z,14.27
2023-04-24T16:59:01.389Z,14.18
2023-04-24T17:01:28.243Z,14.08
2023-04-24T17:03:55.542Z,13.97
2023-04-24T17:06:22.318Z,13.88
2023-04-24T17:08:49.063Z,13.79
2023-04-24T17:11:15.818Z,13.69
2023-04-24T17:13:42.661Z,13.60
2023-04-24T17:16:09.311Z,13.51
2023-04-24T17:18:36.391Z,13.42
2023-04-24T17:21:03.109Z,13.32
2023-04-24T17:23:31.262Z,13.24
2023-04-24T17:25:57.866Z,13.17
2023-04-24T17:28:26.609Z,13.10
2023-04-24T17:30:55.007Z,13.03
2023-04-24T17:33:21.696Z,12.97
2023-04-24T17:35:49.610Z,12.92
2023-04-24T17:38:17.568Z,12.87
2023-04-24T17:40:45.653Z,12.81
2023-04-24T17:43:17.518Z,12.74
2023-04-24T17:45:45.032Z,12.67
2023-04-24T17:48:13.172Z,12.62
2023-04-24T17:50:40.067Z,12.57
2023-04-24T17:53:07.192Z,12.50
2023-04-24T17:55:34.415Z,12.44
2023-04-24T17:58:04.005Z,12.38
2023-04-24T18:00:31.726Z,12.34
2023-04-24T18:03:00.515Z,12.30
2023-04-24T18:05:28.408Z,12.26
2023-04-24T18:07:55.346Z,12.23
2023-04-24T18:10:22.686Z,12.20
2023-04-24T18:12:49.294Z,12.17
2023-04-24T18:15:16.501Z,12.13
2023-04-24T18:17:43.188Z,12.09
2023-04-24T18:20:11.353Z,12.06
2023-04-24T18:22:38.587Z,12.01
2023-04-24T18:25:05.962Z,11.97
2023-04-24T18:27:33.497Z,11.93
2023-04-24T18:30:00.221Z,11.90
2023-04-24T18:32:27.187Z,11.85
2023-04-24T18:34:53.803Z,11.81
2023-04-24T18:37:20.708Z,11.76
2023-04-24T18:39:47.382Z,11.71
2023-04-24T18:42:14.177Z,11.66
2023-04-24T18:44:42.192Z,11.64
2023-04-24T18:47:09.232Z,11.61
2023-04-24T18:49:35.966Z,11.57
2023-04-24T18:52:02.785Z,11.54
2023-04-24T18:54:29.746Z,11.51
2023-04-24T18:56:56.561Z,11.47
2023-04-24T18:59:23.298Z,11.44
2023-04-24T19:01:50.167Z,11.41
2023-04-24T19:04:17.873Z,11.37
2023-04-24T19:06:44.669Z,11.35
2023-04-24T19:09:11.448Z,11.32
2023-04-24T19:11:38.172Z,11.28
2023-04-24T19:14:05.225Z,11.25
2023-04-24T19:16:31.859Z,11.22
2023-04-24T19:18:58.775Z,11.19
2023-04-24T19:21:25.757Z,11.15
2023-04-24T19:23:52.447Z,11.15
2023-04-24T19:26:20.965Z,11.14
2023-04-24T19:28:47.807Z,11.13
2023-04-24T19:31:14.992Z,11.13
2023-04-24T19:33:41.896Z,11.11
2023-04-24T19:36:08.532Z,11.09
2023-04-24T19:38:35.562Z,11.06
2023-04-24T19:41:02.420Z,11.03
2023-04-24T19:43:29.298Z,10.99
2023-04-24T19:45:57.316Z,10.96
2023-04-24T19:48:24.007Z,10.93
2023-04-24T19:50:50.853Z,10.88
2023-04-24T19:53:18.257Z,10.83
2023-04-24T19:55:45.440Z,10.79
2023-04-24T19:58:12.029Z,10.74
2023-04-24T20:00:40.755Z,10.70
2023-04-24T20:03:08.436Z,10.63
2023-04-24T20:05:37.286Z,10.58
2023-04-24T20:08:04.164Z,10.53
2023-04-24T20:10:30.824Z,10.50
2023-04-24T20:12:57.469Z,10.47
2023-04-24T20:15:24.067Z,10.45
2023-04-24T20:17:50.698Z,10.42
2023-04-24T20:20:17.814Z,10.39
2023-04-24T20:22:44.452Z,10.35
2023-04-24T20:25:12.866Z,10.34
2023-04-24T20:27:40.417Z,10.33
2023-04-24T20:30:12.275Z,10.31
2023-04-24T20:32:40.218Z,10.28
2023-04-24T20:35:07.284Z,10.24
2023-04-24T20:37:35.713Z,10.18
2023-04-24T20:40:04.992Z,10.10
2023-04-24T20:42:32.262Z,10.01
2023-04-24T20:44:59.278Z,9.93
2023-04-24T20:47:26.257Z,9.84
2023-04-24T20:49:53.360Z,9.77
2023-04-24T20:52:20.326Z,9.71
2023-04-24T20:54:47.755Z,9.65
2023-04-24T20:57:15.235Z,9.59
2023-04-24T20:59:42.154Z,9.55
2023-04-24T21:02:08.868Z,9.50
2023-04-24T21:04:37.987Z,9.45
2023-04-24T21:07:05.624Z,9.39
2023-04-24T21:09:32.232Z,9.34
2023-04-24T21:11:58.780Z,9.29
2023-04-24T21:14:25.434Z,9.23
2023-04-24T21:16:52.090Z,9.19
2023-04-24T21:19:19.005Z,9.14
2023-04-24T21:21:45.782Z,9.10
2023-04-24T21:24:12.489Z,9.08
2023-04-24T21:26:39.114Z,9.04
2023-04-24T21:29:05.759Z,9.03
2023-04-24T21:31:32.588Z,9.02
2023-04-24T21:33:59.307Z,9.01
2023-04-24T21:36:26.253Z,9.00
2023-04-24T21:38:52.841Z,8.99
2023-04-24T21:41:19.795Z,8.97
2023-04-24T21:43:47.903Z,8.95
2023-04-24T21:46:16.525Z,8.93
2023-04-24T21:48:43.203Z,8.91
2023-04-24T21:51:09.993Z,8.89
2023-04-24T21:53:36.745Z,8.86
2023-04-24T21:56:03.521Z,8.84
2023-04-24T21:58:30.176Z,8.84
2023-04-24T22:00:57.129Z,8.82
2023-04-24T22:03:24.141Z,8.80
2023-04-24T22:05:50.989Z,8.79
2023-04-24T22:08:18.029Z,8.77
2023-04-24T22:10:44.698Z,8.74
2023-04-24T22:13:11.585Z,8.72
2023-04-24T22:15:38.140Z,8.70
2023-04-24T22:18:06.097Z,8.67
2023-04-24T22:20:33.662Z,8.65
2023-04-24T22:23:00.450Z,8.65
2023-04-24T22:25:27.113Z,8.63
2023-04-24T22:27:53.783Z,8.61
2023-04-24T22:30:20.429Z,8.60
2023-04-24T22:32:47.337Z,8.58
2023-04-24T22:35:13.975Z,8.56
2023-04-24T22:37:40.652Z,8.54
2023-04-24T22:40:07.878Z,8.51
2023-04-24T22:42:34.746Z,8.49
2023-04-24T22:45:01.480Z,8.45
2023-04-24T22:47:28.517Z,8.43
2023-04-24T22:49:57.163Z,8.40
2023-04-24T22:52:23.732Z,8.35
2023-04-24T22:54:51.192Z,8.34
2023-04-24T22:57:17.860Z,8.32
2023-04-24T22:59:44.588Z,8.31
2023-04-24T23:02:11.264Z,8.29
2023-04-24T23:04:38.087Z,8.29
2023-04-24T23:07:04.981Z,8.30
2023-04-24T23:09:31.857Z,8.31
2023-04-24T23:11:58.662Z,8.33
2023-04-24T23:14:25.308Z,8.34
2023-04-24T23:16:52.032Z,8.32
2023-04-24T23:19:18.728Z,8.30
2023-04-24T23:21:45.317Z,8.26
2023-04-24T23:24:11.977Z,8.21
2023-04-24T23:26:38.627Z,8.17
2023-04-24T23:29:05.409Z,8.14
2023-04-24T23:31:32.214Z,8.10
2023-04-24T23:33:59.725Z,8.07
2023-04-24T23:36:26.333Z,8.05
2023-04-24T23:38:52.913Z,8.03
2023-04-24T23:41:19.499Z,8.00
2023-04-24T23:43:46.205Z,7.97
2023-04-24T23:46:13.245Z,7.95
2023-04-24T23:48:40.073Z,7.94
2023-04-24T23:51:06.684Z,7.92
2023-04-24T23:53:33.471Z,7.92
2023-04-24T23:56:00.234Z,7.93
2023-04-24T23:58:26.861Z,7.94
